Time;durP1;ratioP1;P1;durP2;ratioP2;P2;SDS_P1;SDS_P2;PMS_P1;PMS_P2;Temp;Humidity;BMP_temperature;BMP_pressure;BME280_temperature;BME280_humidity;BME280_pressure;Samples;Min_cycle;Max_cycle;Signal;HPM_P1;HPM_P2
2024/01/27 00:01:50;;;;;;;21.05;3.85;;;4.40;99.90;;;;;;5065489;28;20028;-73
2024/01/27 00:04:16;;;;;;;17.85;3.55;;;4.40;99.90;;;;;;5065277;28;20028;-72
2024/01/27 00:06:41;;;;;;;18.85;4.07;;;4.40;99.90;;;;;;5064991;28;20108;-72
2024/01/27 00:09:07;;;;;;;15.48;3.42;;;4.40;99.90;;;;;;5065172;28;20112;-72
2024/01/27 00:11:33;;;;;;;14.80;3.17;;;4.40;99.90;;;;;;5064476;28;20391;-73
2024/01/27 00:14:02;;;;;;;18.90;3.80;;;4.40;99.90;;;;;;5065195;28;20039;-72
2024/01/27 00:16:28;;;;;;;11.00;3.50;;;4.40;99.90;;;;;;5065441;28;20032;-72
2024/01/27 00:18:54;;;;;;;15.48;3.47;;;4.30;99.90;;;;;;5065118;28;20115;-72
2024/01/27 00:21:19;;;;;;;14.82;3.78;;;4.40;99.90;;;;;;5065316;28;20580;-72
2024/01/27 00:23:45;;;;;;;13.57;3.33;;;4.30;99.90;;;;;;5064496;28;20036;-73
2024/01/27 00:26:11;;;;;;;23.48;4.18;;;4.30;99.90;;;;;;5047377;28;20060;-73
2024/01/27 00:28:36;;;;;;;13.38;3.40;;;4.30;99.90;;;;;;5064647;28;20564;-73
2024/01/27 00:31:02;;;;;;;18.75;4.57;;;4.30;99.90;;;;;;5065349;28;20055;-73
2024/01/27 00:33:28;;;;;;;19.42;3.63;;;4.30;99.90;;;;;;5064840;28;20099;-73
2024/01/27 00:35:54;;;;;;;16.70;4.20;;;4.30;99.90;;;;;;5065294;28;20215;-73
2024/01/27 00:38:19;;;;;;;15.98;3.75;;;4.20;99.90;;;;;;5065119;28;20503;-72
2024/01/27 00:40:45;;;;;;;21.15;3.60;;;4.20;99.90;;;;;;5064408;28;20044;-74
2024/01/27 00:43:11;;;;;;;11.93;3.15;;;4.20;99.90;;;;;;5065635;28;20066;-72
2024/01/27 00:45:37;;;;;;;16.02;3.78;;;4.10;99.90;;;;;;5064457;28;20474;-73
2024/01/27 00:48:02;;;;;;;15.65;3.30;;;4.20;99.90;;;;;;5065270;28;20047;-73
2024/01/27 00:50:28;;;;;;;19.95;3.28;;;4.10;99.90;;;;;;5064221;28;20481;-73
2024/01/27 00:52:54;;;;;;;17.83;3.70;;;4.10;99.90;;;;;;5065029;28;20490;-72
2024/01/27 00:55:19;;;;;;;18.05;3.20;;;4.10;99.90;;;;;;5064492;28;20027;-72
2024/01/27 00:57:45;;;;;;;21.48;3.75;;;4.10;99.90;;;;;;5064882;28;20055;-72
2024/01/27 01:00:11;;;;;;;14.88;3.78;;;4.10;99.90;;;;;;5064557;28;20055;-72
2024/01/27 01:02:37;;;;;;;12.57;3.50;;;4.00;99.90;;;;;;5065366;28;20140;-72
2024/01/27 01:05:04;;;;;;;12.18;2.95;;;4.00;99.90;;;;;;5064279;28;20066;-72
2024/01/27 01:07:33;;;;;;;16.45;3.90;;;4.00;99.90;;;;;;5065001;28;20033;-73
2024/01/27 01:09:59;;;;;;;15.77;4.10;;;4.00;99.90;;;;;;5064263;28;20067;-72
2024/01/27 01:12:27;;;;;;;17.77;3.42;;;4.00;99.90;;;;;;5065064;28;20363;-72
2024/01/27 01:14:53;;;;;;;11.07;3.08;;;4.00;99.90;;;;;;5064262;28;20016;-75
2024/01/27 01:17:19;;;;;;;15.98;4.15;;;4.00;99.90;;;;;;5065044;28;20168;-72
2024/01/27 01:19:44;;;;;;;21.35;3.75;;;3.90;99.90;;;;;;5064072;28;20135;-72
2024/01/27 01:22:10;;;;;;;16.58;2.95;;;4.00;99.90;;;;;;5066892;28;20481;-73
2024/01/27 01:24:36;;;;;;;21.08;4.05;;;4.00;99.90;;;;;;5068064;28;20106;-72
2024/01/27 01:27:02;;;;;;;17.17;3.35;;;3.90;99.90;;;;;;5068363;28;20017;-72
2024/01/27 01:29:28;;;;;;;19.55;4.30;;;4.00;99.90;;;;;;5067463;28;20025;-72
2024/01/27 01:31:54;;;;;;;15.05;3.88;;;4.00;99.90;;;;;;5068491;28;20020;-72
2024/01/27 01:34:19;;;;;;;16.98;3.78;;;3.90;99.90;;;;;;5067707;28;20039;-73
2024/01/27 01:36:45;;;;;;;21.42;3.22;;;3.90;99.90;;;;;;5067980;28;20070;-72
2024/01/27 01:39:14;;;;;;;15.55;3.17;;;3.90;99.90;;;;;;5067978;28;20470;-72
2024/01/27 01:41:41;;;;;;;14.00;3.30;;;3.90;99.90;;;;;;5067686;28;20189;-72
2024/01/27 01:44:07;;;;;;;15.77;3.10;;;3.90;99.90;;;;;;5067734;28;20020;-72
2024/01/27 01:46:33;;;;;;;16.17;2.90;;;3.90;99.90;;;;;;5067774;28;20508;-72
2024/01/27 01:49:00;;;;;;;21.58;3.63;;;3.90;99.90;;;;;;5067434;28;20040;-72
2024/01/27 01:51:29;;;;;;;16.65;3.20;;;3.90;99.90;;;;;;5068131;28;20023;-73
2024/01/27 01:53:58;;;;;;;18.25;3.45;;;3.90;99.90;;;;;;5067347;28;20032;-73
2024/01/27 01:56:24;;;;;;;17.33;3.35;;;3.90;99.90;;;;;;5067907;28;20032;-72
2024/01/27 01:58:53;;;;;;;19.00;3.47;;;3.90;99.90;;;;;;5067823;28;20028;-72
2024/01/27 02:01:21;;;;;;;16.30;3.15;;;3.90;99.90;;;;;;5067749;28;20065;-73
2024/01/27 02:03:56;;;;;;;11.68;3.35;;;3.90;99.90;;;;;;5067221;28;20033;-73
2024/01/27 02:06:22;;;;;;;11.70;3.38;;;3.80;99.90;;;;;;5067888;28;20023;-72
2024/01/27 02:08:48;;;;;;;20.05;4.28;;;3.80;99.90;;;;;;5067294;28;20036;-72
2024/01/27 02:11:13;;;;;;;15.68;3.47;;;3.70;99.90;;;;;;5067427;28;20021;-72
2024/01/27 02:13:39;;;;;;;15.35;3.20;;;3.70;99.90;;;;;;5067242;28;20409;-73
2024/01/27 02:16:05;;;;;;;14.20;3.08;;;3.70;99.90;;;;;;5067128;28;20017;-73
2024/01/27 02:18:31;;;;;;;16.10;3.30;;;3.70;99.90;;;;;;5067156;28;20703;-72
2024/01/27 02:20:56;;;;;;;13.55;4.03;;;3.70;99.90;;;;;;5066567;28;20078;-73
2024/01/27 02:23:22;;;;;;;13.90;3.10;;;3.60;99.90;;;;;;5067111;28;20020;-72
2024/01/27 02:25:48;;;;;;;12.90;3.30;;;3.60;99.90;;;;;;5066611;28;20032;-72
2024/01/27 02:28:13;;;;;;;17.42;3.38;;;3.60;99.90;;;;;;5067022;28;20060;-73
2024/01/27 02:30:39;;;;;;;15.10;3.65;;;3.60;99.90;;;;;;5066426;28;20028;-73
2024/01/27 02:33:05;;;;;;;19.35;3.63;;;3.60;99.90;;;;;;5065760;28;20040;-72
2024/01/27 02:35:31;;;;;;;16.02;3.42;;;3.60;99.90;;;;;;5066057;28;20103;-72
2024/01/27 02:37:57;;;;;;;16.10;4.13;;;3.60;99.90;;;;;;5067189;28;20141;-72
2024/01/27 02:40:22;;;;;;;18.20;3.65;;;3.60;99.90;;;;;;5066355;28;20016;-73
2024/01/27 02:42:49;;;;;;;14.55;3.80;;;3.60;99.90;;;;;;5066734;28;20037;-72
2024/01/27 02:45:14;;;;;;;22.15;3.40;;;3.60;99.90;;;;;;5066156;28;20032;-73
2024/01/27 02:47:40;;;;;;;16.38;3.35;;;3.60;99.90;;;;;;5066477;28;20043;-72
2024/01/27 02:50:06;;;;;;;13.50;3.50;;;3.60;99.90;;;;;;5066263;28;20028;-72
2024/01/27 02:52:33;;;;;;;18.63;3.85;;;3.60;99.90;;;;;;5066434;28;20043;-73
2024/01/27 02:54:58;;;;;;;13.70;3.75;;;3.50;99.90;;;;;;5066131;28;20077;-72
2024/01/27 02:57:24;;;;;;;14.48;3.55;;;3.40;99.90;;;;;;5048648;28;20025;-72
2024/01/27 02:59:50;;;;;;;13.45;3.45;;;3.30;99.90;;;;;;5065884;28;20025;-73
2024/01/27 03:02:16;;;;;;;18.35;3.58;;;3.30;99.90;;;;;;5066443;28;20545;-72
2024/01/27 03:04:42;;;;;;;11.63;3.72;;;3.30;99.90;;;;;;5065705;28;20020;-72
2024/01/27 03:07:08;;;;;;;18.60;3.97;;;3.30;99.90;;;;;;5066444;28;20498;-72
2024/01/27 03:09:33;;;;;;;17.85;3.78;;;3.20;99.90;;;;;;5065517;28;20085;-72
2024/01/27 03:11:59;;;;;;;10.73;3.38;;;3.20;99.90;;;;;;5066285;28;20017;-72
2024/01/27 03:14:25;;;;;;;13.35;3.85;;;3.10;99.90;;;;;;5065712;28;20032;-73
2024/01/27 03:16:50;;;;;;;13.55;3.83;;;3.20;99.90;;;;;;5066619;28;20021;-72
2024/01/27 03:19:16;;;;;;;15.95;4.10;;;3.20;99.90;;;;;;5065649;28;20508;-72
2024/01/27 03:21:42;;;;;;;23.02;3.63;;;3.20;99.90;;;;;;5065904;28;20085;-72
2024/01/27 03:24:08;;;;;;;16.48;3.90;;;3.20;99.90;;;;;;5065788;28;20028;-72
2024/01/27 03:26:33;;;;;;;20.02;4.93;;;3.20;99.90;;;;;;5065781;28;20020;-73
2024/01/27 03:28:59;;;;;;;19.13;4.30;;;3.20;99.90;;;;;;5065966;28;20020;-72
2024/01/27 03:31:34;;;;;;;23.17;3.95;;;3.10;99.90;;;;;;5065693;28;20025;-72
2024/01/27 03:34:00;;;;;;;19.13;5.22;;;3.10;99.90;;;;;;5065814;28;20017;-72
2024/01/27 03:36:26;;;;;;;14.63;4.55;;;3.10;99.90;;;;;;5065797;28;20385;-72
2024/01/27 03:38:52;;;;;;;17.73;4.50;;;3.10;99.90;;;;;;5066208;28;20017;-73
2024/01/27 03:41:17;;;;;;;15.93;4.00;;;3.10;99.90;;;;;;5065106;28;20044;-74
2024/01/27 03:43:43;;;;;;;16.15;5.15;;;3.10;99.90;;;;;;5065499;28;20058;-75
2024/01/27 03:46:09;;;;;;;14.75;4.88;;;3.10;99.90;;;;;;5064572;28;20055;-74
2024/01/27 03:48:37;;;;;;;15.98;5.13;;;3.10;99.90;;;;;;5065578;28;20036;-74
2024/01/27 03:51:03;;;;;;;21.00;5.18;;;3.10;99.90;;;;;;5065388;28;20028;-74
2024/01/27 03:53:29;;;;;;;16.42;4.95;;;3.10;99.90;;;;;;5065631;28;20145;-74
2024/01/27 03:55:58;;;;;;;17.17;4.82;;;3.10;99.90;;;;;;5065582;28;20020;-74
2024/01/27 03:58:24;;;;;;;19.35;5.45;;;3.10;99.90;;;;;;5065723;28;20050;-72
2024/01/27 04:00:49;;;;;;;15.93;5.50;;;3.10;99.90;;;;;;5065036;28;20089;-72
2024/01/27 04:03:15;;;;;;;16.45;5.40;;;3.10;99.90;;;;;;5065938;28;20020;-74
2024/01/27 04:05:41;;;;;;;15.23;5.28;;;3.10;99.90;;;;;;5064905;28;20037;-72
2024/01/27 04:08:06;;;;;;;18.13;5.47;;;3.00;99.90;;;;;;5065675;28;20020;-72
2024/01/27 04:10:32;;;;;;;15.25;5.88;;;3.00;99.90;;;;;;5064570;28;20508;-72
2024/01/27 04:12:58;;;;;;;23.88;6.70;;;3.00;99.90;;;;;;5065645;28;20115;-74
2024/01/27 04:15:23;;;;;;;17.30;6.10;;;3.00;99.90;;;;;;5065170;28;20020;-73
2024/01/27 04:17:49;;;;;;;22.83;7.25;;;3.00;99.90;;;;;;5065470;28;20538;-73
2024/01/27 04:20:15;;;;;;;22.38;6.38;;;3.00;99.90;;;;;;5064601;28;20028;-73
2024/01/27 04:22:40;;;;;;;17.25;6.07;;;3.00;99.90;;;;;;5065376;28;20186;-73
2024/01/27 04:25:07;;;;;;;23.85;6.35;;;3.00;99.90;;;;;;5064752;28;20027;-72
2024/01/27 04:27:39;;;;;;;26.17;7.03;;;3.00;99.90;;;;;;5064876;28;20024;-73
2024/01/27 04:30:10;;;;;;;23.38;6.90;;;3.00;99.90;;;;;;5064494;28;20386;-73
2024/01/27 04:32:36;;;;;;;21.13;6.30;;;2.90;99.90;;;;;;5065292;28;20024;-73
2024/01/27 04:35:03;;;;;;;22.13;7.30;;;2.90;99.90;;;;;;5064693;28;20021;-74
2024/01/27 04:37:28;;;;;;;18.40;6.75;;;2.90;99.90;;;;;;5065196;28;20025;-73
2024/01/27 04:39:54;;;;;;;25.00;6.63;;;2.90;99.90;;;;;;5064649;28;20101;-73
2024/01/27 04:42:20;;;;;;;19.08;7.55;;;2.80;99.90;;;;;;5065184;28;20040;-74
2024/01/27 04:44:46;;;;;;;20.20;7.28;;;2.80;99.90;;;;;;5064200;28;20032;-73
2024/01/27 04:47:11;;;;;;;23.05;7.22;;;2.80;99.90;;;;;;5065279;28;20494;-73
2024/01/27 04:49:37;;;;;;;21.02;7.03;;;2.80;99.90;;;;;;5064009;28;20094;-73
2024/01/27 04:52:03;;;;;;;19.60;7.82;;;2.80;99.90;;;;;;5065103;28;20024;-73
2024/01/27 04:54:29;;;;;;;18.67;7.03;;;2.70;99.90;;;;;;5064465;28;20032;-73
2024/01/27 04:56:54;;;;;;;18.35;6.85;;;2.70;99.90;;;;;;5066709;28;20036;-74
2024/01/27 04:59:20;;;;;;;22.15;7.28;;;2.70;99.90;;;;;;5050285;28;20047;-73
2024/01/27 05:01:46;;;;;;;22.90;8.10;;;2.60;99.90;;;;;;5068539;28;20024;-73
2024/01/27 05:04:12;;;;;;;27.27;7.70;;;2.70;99.90;;;;;;5068921;28;20473;-73
2024/01/27 05:06:39;;;;;;;20.33;7.60;;;2.60;99.90;;;;;;5068029;28;20595;-73
2024/01/27 05:09:05;;;;;;;23.05;7.25;;;2.70;99.90;;;;;;5068984;28;20028;-73
2024/01/27 05:11:32;;;;;;;24.48;8.02;;;2.70;99.90;;;;;;5067668;28;20016;-73
2024/01/27 05:13:59;;;;;;;17.92;7.68;;;2.70;99.90;;;;;;5068346;28;20028;-73
2024/01/27 05:16:24;;;;;;;27.83;7.97;;;2.70;99.90;;;;;;5067334;28;20024;-71
2024/01/27 05:18:50;;;;;;;24.60;7.78;;;2.70;99.90;;;;;;5068690;28;20634;-72
2024/01/27 05:21:16;;;;;;;22.95;7.72;;;2.70;99.90;;;;;;5067907;28;20034;-72
2024/01/27 05:23:42;;;;;;;22.95;7.75;;;2.70;99.90;;;;;;5067974;28;20500;-72
2024/01/27 05:26:07;;;;;;;21.13;7.93;;;2.70;99.90;;;;;;5067911;28;20040;-72
2024/01/27 05:28:33;;;;;;;21.55;7.53;;;2.80;99.90;;;;;;5068059;28;20070;-72
2024/01/27 05:30:59;;;;;;;21.40;6.82;;;2.70;99.90;;;;;;5063036;28;20377;-72
2024/01/27 05:33:24;;;;;;;19.98;7.90;;;2.70;99.90;;;;;;5068355;28;20027;-73
2024/01/27 05:35:50;;;;;;;19.15;8.23;;;2.70;99.90;;;;;;5067767;28;20449;-72
2024/01/27 05:38:16;;;;;;;17.90;6.90;;;2.80;99.90;;;;;;5068378;28;20020;-72
2024/01/27 05:40:42;;;;;;;25.00;7.65;;;2.80;99.90;;;;;;5067308;28;20470;-73
2024/01/27 05:43:07;;;;;;;24.25;8.65;;;2.80;99.90;;;;;;5068400;28;20123;-72
2024/01/27 05:45:33;;;;;;;27.15;8.27;;;2.70;99.90;;;;;;5067164;28;20032;-72
2024/01/27 05:47:59;;;;;;;19.88;7.07;;;2.70;99.90;;;;;;5067949;28;20103;-72
2024/01/27 05:50:24;;;;;;;19.05;7.75;;;2.80;99.90;;;;;;5067153;28;20068;-72
2024/01/27 05:52:50;;;;;;;21.25;7.57;;;2.70;99.90;;;;;;5067947;28;20077;-72
2024/01/27 05:55:17;;;;;;;24.42;7.78;;;2.80;99.90;;;;;;5067508;28;20024;-73
2024/01/27 05:57:42;;;;;;;18.13;7.13;;;2.80;99.90;;;;;;5067765;28;20389;-72
2024/01/27 06:00:09;;;;;;;18.90;7.40;;;2.70;99.90;;;;;;5067114;28;20023;-72
2024/01/27 06:02:36;;;;;;;17.33;7.07;;;2.70;99.90;;;;;;5067894;28;20039;-73
2024/01/27 06:05:02;;;;;;;22.30;7.43;;;2.80;99.90;;;;;;5067539;28;20024;-73
2024/01/27 06:07:27;;;;;;;21.38;8.07;;;2.70;99.90;;;;;;5067043;28;20032;-73
2024/01/27 06:09:53;;;;;;;20.60;7.65;;;2.70;99.90;;;;;;5066397;28;20024;-74
2024/01/27 06:12:19;;;;;;;17.88;7.70;;;2.70;99.90;;;;;;5067842;28;20052;-73
2024/01/27 06:14:45;;;;;;;24.63;8.30;;;2.70;99.90;;;;;;5066685;28;20024;-73
2024/01/27 06:17:10;;;;;;;23.70;7.95;;;2.70;99.90;;;;;;5067366;28;20394;-73
2024/01/27 06:19:37;;;;;;;20.88;7.50;;;2.70;99.90;;;;;;5067316;28;20074;-73
2024/01/27 06:22:03;;;;;;;21.63;7.70;;;2.70;99.90;;;;;;5067289;28;20454;-73
2024/01/27 06:24:28;;;;;;;20.05;7.90;;;2.70;99.90;;;;;;5066941;28;20066;-74
2024/01/27 06:26:54;;;;;;;18.67;7.25;;;2.70;99.90;;;;;;5067134;28;20025;-73
2024/01/27 06:29:20;;;;;;;20.50;8.60;;;2.70;99.90;;;;;;5066195;28;20094;-74
2024/01/27 06:31:45;;;;;;;24.55;8.30;;;2.70;99.90;;;;;;5066166;28;20501;-74
2024/01/27 06:34:11;;;;;;;19.90;8.25;;;2.70;99.90;;;;;;5067117;28;20497;-73
2024/01/27 06:36:37;;;;;;;20.75;7.78;;;2.70;99.90;;;;;;5066108;28;20575;-73
2024/01/27 06:39:02;;;;;;;27.25;8.45;;;2.70;99.90;;;;;;5067578;28;20025;-73
2024/01/27 06:41:28;;;;;;;27.10;8.52;;;2.60;99.90;;;;;;5066217;28;20036;-73
2024/01/27 06:43:53;;;;;;;28.40;9.93;;;2.60;99.90;;;;;;5048884;28;20536;-73
2024/01/27 06:46:19;;;;;;;24.15;9.05;;;2.60;99.90;;;;;;5066431;28;20025;-74
2024/01/27 06:48:45;;;;;;;22.42;8.18;;;2.50;99.90;;;;;;5066727;28;20032;-73
2024/01/27 06:51:10;;;;;;;21.60;7.97;;;2.50;99.90;;;;;;5066189;28;20044;-73
2024/01/27 06:53:36;;;;;;;19.30;8.00;;;2.50;99.90;;;;;;5066739;28;20028;-73
2024/01/27 06:56:05;;;;;;;21.88;8.30;;;2.50;99.90;;;;;;5065946;28;20557;-73
2024/01/27 06:58:30;;;;;;;26.67;9.43;;;2.50;99.90;;;;;;5066959;28;20493;-73
2024/01/27 07:00:56;;;;;;;22.98;8.73;;;2.50;99.90;;;;;;5065750;28;20028;-73
2024/01/27 07:03:22;;;;;;;22.33;8.27;;;2.50;99.90;;;;;;5066854;28;20031;-74
2024/01/27 07:05:48;;;;;;;21.42;8.30;;;2.50;99.90;;;;;;5065764;28;20024;-73
2024/01/27 07:08:13;;;;;;;21.40;8.18;;;2.60;99.90;;;;;;5066438;28;20382;-73
2024/01/27 07:10:39;;;;;;;21.42;8.57;;;2.50;99.90;;;;;;5065375;28;20123;-74
2024/01/27 07:13:06;;;;;;;21.80;9.00;;;2.50;99.90;;;;;;5066262;28;20020;-78
2024/01/27 07:15:32;;;;;;;19.95;8.50;;;2.50;99.90;;;;;;5065151;28;20024;-73
2024/01/27 07:17:58;;;;;;;16.20;8.27;;;2.50;99.90;;;;;;5066337;28;20347;-73
2024/01/27 07:20:24;;;;;;;21.95;8.73;;;2.50;99.90;;;;;;5065360;28;20153;-74
2024/01/27 07:22:50;;;;;;;20.85;8.90;;;2.50;99.90;;;;;;5066518;28;20099;-74
2024/01/27 07:25:15;;;;;;;25.95;9.45;;;2.40;99.90;;;;;;5065362;28;20595;-73
2024/01/27 07:27:41;;;;;;;22.45;8.70;;;2.40;99.90;;;;;;5065720;28;20025;-73
2024/01/27 07:30:09;;;;;;;17.90;8.57;;;2.40;99.90;;;;;;5061607;28;20039;-73
2024/01/27 07:32:35;;;;;;;16.58;8.32;;;2.40;99.90;;;;;;5065767;28;20308;-73
2024/01/27 07:35:01;;;;;;;18.75;8.05;;;2.40;99.90;;;;;;5065688;28;20020;-74
2024/01/27 07:37:27;;;;;;;19.45;8.77;;;2.40;99.90;;;;;;5063750;28;20020;-73
2024/01/27 07:39:52;;;;;;;15.95;8.50;;;2.40;99.90;;;;;;5063769;28;20032;-72
2024/01/27 07:42:18;;;;;;;18.75;8.18;;;2.30;99.90;;;;;;5060499;28;20040;-74
2024/01/27 07:44:44;;;;;;;20.17;8.70;;;2.30;99.90;;;;;;5061936;28;20180;-73
2024/01/27 07:47:09;;;;;;;22.33;9.00;;;2.30;99.90;;;;;;5059216;28;20105;-74
2024/01/27 07:49:35;;;;;;;25.02;8.85;;;2.30;99.90;;;;;;5064434;28;20033;-73
2024/01/27 07:52:01;;;;;;;24.00;9.07;;;2.30;99.90;;;;;;5060650;28;20025;-73
2024/01/27 07:54:26;;;;;;;23.25;9.18;;;2.30;99.90;;;;;;5062242;28;20032;-73
2024/01/27 07:56:52;;;;;;;23.08;9.48;;;2.30;99.90;;;;;;5064704;28;20062;-73
2024/01/27 07:59:18;;;;;;;18.20;8.77;;;2.30;99.90;;;;;;5065156;28;20058;-74
2024/01/27 08:01:44;;;;;;;20.30;8.70;;;2.30;99.90;;;;;;5064996;28;20477;-74
2024/01/27 08:04:10;;;;;;;22.95;9.43;;;2.30;99.90;;;;;;5065623;28;20024;-73
2024/01/27 08:06:47;;;;;;;19.33;9.02;;;2.40;99.90;;;;;;5055487;28;20021;-74
2024/01/27 08:09:12;;;;;;;21.98;9.70;;;2.30;99.90;;;;;;5065359;28;20055;-73
2024/01/27 08:11:38;;;;;;;18.35;8.38;;;2.30;99.90;;;;;;5064541;28;20056;-74
2024/01/27 08:14:06;;;;;;;21.73;9.90;;;2.40;99.90;;;;;;5107973;22;20053;-73
2024/01/27 08:16:32;;;;;;;20.25;9.45;;;2.40;99.90;;;;;;5050378;28;20475;-73
2024/01/27 08:18:58;;;;;;;27.75;10.40;;;2.40;99.90;;;;;;5055125;28;20033;-73
2024/01/27 08:21:24;;;;;;;19.88;10.18;;;2.40;99.90;;;;;;5054518;28;20025;-73
2024/01/27 08:23:49;;;;;;;24.40;9.95;;;2.50;99.90;;;;;;5054925;28;20021;-73
2024/01/27 08:26:15;;;;;;;23.30;10.05;;;2.50;99.90;;;;;;5036296;28;20115;-73
2024/01/27 08:28:44;;;;;;;18.50;9.48;;;2.50;99.90;;;;;;5054797;28;20025;-73
2024/01/27 08:31:10;;;;;;;28.50;9.60;;;2.60;99.90;;;;;;5054714;28;20021;-73
2024/01/27 08:33:36;;;;;;;23.70;10.75;;;2.60;99.90;;;;;;5058999;28;20036;-73
2024/01/27 08:36:04;;;;;;;18.35;9.95;;;2.70;99.90;;;;;;5058475;28;20025;-73
2024/01/27 08:38:30;;;;;;;23.23;9.90;;;2.70;99.90;;;;;;5039918;28;20025;-73
2024/01/27 08:40:58;;;;;;;23.05;10.02;;;2.80;99.90;;;;;;5058521;28;20032;-73
2024/01/27 08:43:24;;;;;;;21.65;9.10;;;2.80;99.90;;;;;;5065659;28;20492;-73
2024/01/27 08:45:50;;;;;;;26.15;10.23;;;2.90;99.90;;;;;;5040050;28;20021;-73
2024/01/27 08:48:16;;;;;;;23.33;11.13;;;3.00;99.90;;;;;;5040813;28;20017;-73
2024/01/27 08:50:42;;;;;;;24.20;10.52;;;3.00;99.90;;;;;;5057805;28;20037;-73
2024/01/27 08:53:07;;;;;;;24.90;10.20;;;3.10;99.90;;;;;;5057746;28;20025;-74
2024/01/27 08:55:36;;;;;;;22.38;10.10;;;3.10;99.90;;;;;;5045327;28;20025;-73
2024/01/27 08:58:01;;;;;;;25.30;11.05;;;3.20;99.90;;;;;;5026226;28;20021;-74
2024/01/27 09:00:27;;;;;;;25.35;10.02;;;3.30;99.90;;;;;;5038155;28;20110;-73
2024/01/27 09:02:53;;;;;;;21.90;10.20;;;3.30;99.90;;;;;;5045092;28;20103;-73
2024/01/27 09:05:19;;;;;;;23.55;10.63;;;3.30;99.90;;;;;;5052616;28;20033;-72
2024/01/27 09:07:45;;;;;;;37.42;11.43;;;3.40;99.90;;;;;;5032301;28;20025;-73
2024/01/27 09:10:13;;;;;;;17.58;9.68;;;3.50;99.90;;;;;;5057525;28;20036;-73
2024/01/27 09:12:39;;;;;;;21.92;10.23;;;3.50;99.90;;;;;;5044718;28;20044;-72
2024/01/27 09:15:07;;;;;;;20.75;9.73;;;3.60;99.90;;;;;;5041968;28;20045;-73
2024/01/27 09:17:33;;;;;;;27.60;9.60;;;3.70;99.90;;;;;;5030173;28;20055;-73
2024/01/27 09:19:58;;;;;;;24.08;9.73;;;3.70;99.90;;;;;;5037572;28;20030;-74
2024/01/27 09:22:24;;;;;;;31.00;12.90;;;3.90;99.90;;;;;;5037417;28;20048;-73
2024/01/27 09:24:51;;;;;;;21.83;10.23;;;4.00;99.90;;;;;;5015938;28;20404;-73
2024/01/27 09:27:17;;;;;;;17.67;9.98;;;4.00;99.90;;;;;;5037604;28;20390;-73
2024/01/27 09:29:43;;;;;;;23.38;10.35;;;4.10;99.90;;;;;;5037671;28;20081;-73
2024/01/27 09:32:08;;;;;;;27.08;10.88;;;4.20;99.90;;;;;;5019972;28;20129;-74
2024/01/27 09:34:37;;;;;;;23.30;9.68;;;4.30;99.90;;;;;;5037978;28;20014;-73
2024/01/27 09:37:03;;;;;;;19.60;10.00;;;4.30;99.90;;;;;;5037235;28;20044;-73
2024/01/27 09:39:34;;;;;;;22.48;10.38;;;4.40;99.90;;;;;;5037964;28;20026;-73
2024/01/27 09:42:04;;;;;;;28.33;9.82;;;4.50;99.90;;;;;;5036518;28;20029;-73
2024/01/27 09:44:31;;;;;;;32.92;10.27;;;4.60;99.90;;;;;;5018677;28;20116;-73
2024/01/27 09:46:57;;;;;;;22.70;9.40;;;4.60;99.90;;;;;;5037011;28;20029;-73
2024/01/27 09:49:24;;;;;;;22.13;9.68;;;4.70;99.90;;;;;;5037290;28;20059;-73
2024/01/27 09:51:50;;;;;;;28.20;9.57;;;4.70;99.90;;;;;;5036707;28;20596;-73
2024/01/27 09:54:17;;;;;;;25.23;9.98;;;4.90;99.90;;;;;;5037368;28;20025;-72
2024/01/27 09:56:45;;;;;;;21.08;9.65;;;4.90;99.90;;;;;;5037947;28;20031;-73
2024/01/27 09:59:14;;;;;;;26.15;10.00;;;5.00;99.90;;;;;;5046485;28;20029;-73
2024/01/27 10:01:40;;;;;;;20.63;9.60;;;5.10;99.90;;;;;;5036449;28;20028;-73
2024/01/27 10:04:10;;;;;;;37.70;9.85;;;5.20;99.90;;;;;;5037356;28;20052;-73
2024/01/27 10:06:36;;;;;;;26.42;9.00;;;5.20;99.90;;;;;;5035884;28;20025;-74
2024/01/27 10:09:02;;;;;;;22.20;9.20;;;5.30;99.90;;;;;;5018932;28;20056;-73
2024/01/27 10:11:30;;;;;;;24.45;8.88;;;5.40;99.90;;;;;;5036225;28;20029;-73
2024/01/27 10:13:57;;;;;;;19.42;8.50;;;5.50;99.90;;;;;;5038857;28;20167;-73
2024/01/27 10:16:27;;;;;;;19.92;8.20;;;5.60;99.90;;;;;;5017698;28;20041;-73
2024/01/27 10:19:03;;;;;;;19.55;9.18;;;5.70;99.90;;;;;;5036885;28;20025;-73
2024/01/27 10:21:29;;;;;;;20.65;8.35;;;5.80;99.90;;;;;;5035150;28;20041;-73
2024/01/27 10:23:54;;;;;;;19.98;8.02;;;5.80;99.90;;;;;;5036862;28;20459;-73
2024/01/27 10:26:20;;;;;;;15.82;7.20;;;5.90;99.90;;;;;;5035876;28;20037;-73
2024/01/27 10:28:57;;;;;;;18.77;8.10;;;6.00;99.90;;;;;;5035130;28;20377;-73
2024/01/27 10:31:30;;;;;;;20.25;7.40;;;6.10;99.90;;;;;;5034196;28;20127;-72
2024/01/27 10:33:57;;;;;;;20.15;7.72;;;6.20;99.90;;;;;;5034861;28;20040;-72
2024/01/27 10:36:26;;;;;;;21.88;9.00;;;6.30;99.90;;;;;;5033777;28;20033;-73
2024/01/27 10:38:52;;;;;;;14.32;7.90;;;6.40;99.90;;;;;;5042213;28;20080;-73
2024/01/27 10:41:23;;;;;;;19.58;8.68;;;6.40;99.90;;;;;;5039911;28;20112;-73
2024/01/27 10:43:54;;;;;;;19.00;8.20;;;6.50;99.90;;;;;;5034517;28;20362;-73
2024/01/27 10:46:21;;;;;;;17.42;7.80;;;6.50;99.90;;;;;;5034408;28;20057;-73
2024/01/27 10:48:54;;;;;;;18.35;8.57;;;6.60;99.90;;;;;;5032966;28;20029;-72
2024/01/27 10:51:32;;;;;;;18.95;7.57;;;6.70;99.90;;;;;;5035974;28;20116;-74
2024/01/27 10:54:02;;;;;;;17.80;7.07;;;6.80;99.90;;;;;;5036315;28;20099;-72
2024/01/27 10:56:31;;;;;;;21.17;7.60;;;6.90;99.90;;;;;;5035192;28;20497;-72
2024/01/27 10:58:58;;;;;;;18.58;7.38;;;7.00;99.90;;;;;;5035431;28;20021;-72
2024/01/27 11:01:24;;;;;;;28.63;8.38;;;7.10;99.90;;;;;;5046382;28;20025;-72
2024/01/27 11:03:52;;;;;;;21.52;7.75;;;7.10;99.90;;;;;;5022295;28;20036;-73
2024/01/27 11:06:21;;;;;;;18.45;7.45;;;7.20;99.90;;;;;;5035488;28;20407;-71
2024/01/27 11:08:49;;;;;;;15.68;7.20;;;7.30;99.90;;;;;;5035672;28;20029;-72
2024/01/27 11:11:18;;;;;;;20.55;7.30;;;7.30;99.90;;;;;;5034510;28;20094;-72
2024/01/27 11:13:48;;;;;;;15.45;7.40;;;7.30;99.90;;;;;;5017138;28;20590;-73
2024/01/27 11:16:18;;;;;;;21.13;6.82;;;7.40;99.90;;;;;;5035129;28;20029;-73
2024/01/27 11:18:44;;;;;;;15.77;6.85;;;7.50;99.90;;;;;;5035377;28;20021;-73
2024/01/27 11:21:17;;;;;;;17.60;7.57;;;7.50;99.90;;;;;;5035083;28;20026;-73
2024/01/27 11:23:44;;;;;;;18.75;7.25;;;7.60;99.90;;;;;;5035387;28;20033;-72
2024/01/27 11:26:14;;;;;;;18.50;6.82;;;7.70;99.90;;;;;;5035110;28;20021;-73
2024/01/27 11:28:40;;;;;;;21.63;7.38;;;7.90;99.90;;;;;;5035529;28;20152;-72
2024/01/27 11:31:14;;;;;;;13.48;6.53;;;8.00;99.90;;;;;;5034985;28;20025;-72
2024/01/27 11:33:54;;;;;;;21.10;6.57;;;8.10;99.90;;;;;;5033454;28;20021;-72
2024/01/27 11:36:24;;;;;;;19.85;6.88;;;8.20;99.90;;;;;;5046775;28;20074;-72
2024/01/27 11:38:51;;;;;;;14.88;6.70;;;8.30;99.90;;;;;;5018902;28;20036;-72
2024/01/27 11:41:30;;;;;;;20.30;5.80;;;8.40;99.90;;;;;;5034766;28;20036;-72
2024/01/27 11:43:59;;;;;;;17.23;6.07;;;8.50;99.90;;;;;;5035423;28;20081;-72
2024/01/27 11:46:26;;;;;;;20.25;6.13;;;8.70;99.90;;;;;;5035130;28;20033;-71
2024/01/27 11:48:52;;;;;;;19.55;7.00;;;8.80;99.90;;;;;;5041453;28;20411;-71
2024/01/27 11:51:19;;;;;;;12.75;5.40;;;8.90;99.90;;;;;;5034799;28;20026;-74
2024/01/27 11:53:45;;;;;;;15.82;5.72;;;9.10;99.90;;;;;;5035169;28;20076;-71
2024/01/27 11:56:11;;;;;;;12.82;5.10;;;9.10;99.90;;;;;;5016518;28;20041;-71
2024/01/27 11:58:47;;;;;;;18.95;5.70;;;9.20;99.90;;;;;;5035412;28;20155;-69
2024/01/27 12:01:13;;;;;;;16.88;5.78;;;9.20;99.90;;;;;;5032128;28;20033;-72
2024/01/27 12:03:43;;;;;;;16.10;6.00;;;9.30;99.90;;;;;;5035320;28;20108;-72
2024/01/27 12:06:09;;;;;;;11.70;5.43;;;9.30;99.90;;;;;;5032936;28;20068;-72
2024/01/27 12:08:37;;;;;;;14.50;5.95;;;9.30;99.90;;;;;;5035390;28;20022;-72
2024/01/27 12:11:03;;;;;;;19.13;6.28;;;9.40;99.90;;;;;;5034498;28;20101;-72
2024/01/27 12:13:29;;;;;;;22.17;5.47;;;9.40;99.90;;;;;;5033865;28;20103;-72
2024/01/27 12:15:58;;;;;;;13.80;5.35;;;9.50;99.90;;;;;;5034721;28;20025;-72
2024/01/27 12:18:24;;;;;;;18.77;5.35;;;9.70;99.90;;;;;;5034544;28;20017;-72
2024/01/27 12:20:56;;;;;;;23.13;6.00;;;9.80;99.90;;;;;;5034465;28;20041;-73
2024/01/27 12:23:24;;;;;;;16.63;4.82;;;9.90;99.90;;;;;;5014307;28;20029;-73
2024/01/27 12:25:54;;;;;;;16.20;4.47;;;9.90;99.90;;;;;;5039237;28;20026;-72
2024/01/27 12:28:20;;;;;;;18.27;5.55;;;10.00;99.90;;;;;;5034782;28;20022;-72
2024/01/27 12:30:46;;;;;;;26.73;6.68;;;10.00;99.90;;;;;;5033531;28;20022;-73
2024/01/27 12:33:12;;;;;;;18.00;5.07;;;10.00;99.90;;;;;;5032971;28;20116;-73
2024/01/27 12:35:38;;;;;;;14.50;4.68;;;10.00;99.90;;;;;;5015605;28;20041;-72
2024/01/27 12:38:06;;;;;;;16.73;4.72;;;10.10;99.90;;;;;;5032852;28;20026;-73
2024/01/27 12:40:34;;;;;;;12.95;4.20;;;10.10;99.90;;;;;;5034682;28;20033;-73
2024/01/27 12:43:00;;;;;;;12.95;4.10;;;10.10;99.90;;;;;;5034120;28;20041;-72